»·PEaware :: N851TB KSNA-KCRQ

N851TB :: KSNA-KCRQ

FLIGHT INFORMATION

Flight Status: Arrived
Operator: Privately registered:
United States
More flights under this callsign
Pilot: Adam P. (10444)
Aircraft: PIPER PA-32 SARATOGA
(PA32)
More flights by this aircraft type
Origin: KSNA John Wayne-Orange Co
United States
Destination: KCRQ McClellan-Palomar
United States
More flights between these airports :: More routes between these airports
Route: +V23 OCN
File this flight plan on PilotEdge
Remarks: Request I-2 rating
Altitude:
(Current/Filed)
5,000ft
Speed:
(Current/Filed)
145kts
Departed: 08-Aug-17 09:00 AM
Arrived: 08-Aug-17 09:35 AM
Distance/Time
Traveled:
44nm/0:35
Distance/Time
To Go:
Arrived

Flight Plot

Page will automatically refresh every two minutes.


Map Options




Map Legend


Flown Route
Filed Route
Departure Airport
Arrival Airport
Navaid (VOR, NDB)
Fix

Horizontal Profiles

Position Reports

Time Latitude Longitude Heading Altitude Ground
Speed
08-Aug-17 08:49 33.670889 -117.867574 32 60ft 0kts
08-Aug-17 08:50 33.670889 -117.867574 32 60ft 0kts
08-Aug-17 08:51 33.670889 -117.867574 32 60ft 0kts
08-Aug-17 08:52 33.670889 -117.867574 32 60ft 0kts
08-Aug-17 08:53 33.670889 -117.867574 32 60ft 0kts
08-Aug-17 08:54 33.670889 -117.867574 32 60ft 0kts
08-Aug-17 08:55 33.670889 -117.867574 32 60ft 0kts
08-Aug-17 08:56 33.670889 -117.867574 32 60ft 0kts
08-Aug-17 08:57 33.670889 -117.867574 32 60ft 0kts
08-Aug-17 08:58 33.671891 -117.868334 36 60ft 7kts
08-Aug-17 08:59 33.673571 -117.866958 339 60ft 4kts
08-Aug-17 09:00 33.676588 -117.865532 24 60ft 21kts
08-Aug-17 09:01 33.679991 -117.863685 297 60ft 0kts
08-Aug-17 09:02 33.679991 -117.863685 297 60ft 0kts
08-Aug-17 09:03 33.669923 -117.869964 197 320ft 87kts
08-Aug-17 09:04 33.641584 -117.869168 176 1294ft 112kts
08-Aug-17 09:05 33.609159 -117.868520 180 2293ft 115kts
08-Aug-17 09:06 33.578600 -117.871911 186 3285ft 108kts
08-Aug-17 09:07 33.549410 -117.876192 186 4277ft 102kts
08-Aug-17 09:08 33.519817 -117.879348 166 5002ft 131kts
08-Aug-17 09:09 33.504252 -117.836651 102 5000ft 154kts
08-Aug-17 09:10 33.494429 -117.784347 102 5000ft 165kts
08-Aug-17 09:11 33.484534 -117.731718 102 4999ft 159kts
08-Aug-17 09:12 33.471769 -117.681992 124 4999ft 157kts
08-Aug-17 09:13 33.444203 -117.641868 131 4999ft 156kts
08-Aug-17 09:14 33.411169 -117.607852 138 5000ft 156kts
08-Aug-17 09:15 33.379026 -117.572878 136 5000ft 156kts
08-Aug-17 09:16 33.350516 -117.534360 122 5000ft 156kts
08-Aug-17 09:17 33.337623 -117.487435 82 5001ft 155kts
08-Aug-17 09:18 33.340953 -117.436562 91 4999ft 153kts
08-Aug-17 09:19 33.338968 -117.385728 91 4999ft 152kts
08-Aug-17 09:20 33.337615 -117.335091 91 4999ft 152kts
08-Aug-17 09:21 33.328988 -117.285250 102 4998ft 153kts
08-Aug-17 09:22 33.319454 -117.235567 102 4996ft 153kts
08-Aug-17 09:23 33.309770 -117.185742 102 4994ft 154kts
08-Aug-17 09:24 33.299955 -117.135930 102 4994ft 153kts
08-Aug-17 09:25 33.290467 -117.086979 102 4993ft 148kts
08-Aug-17 09:26 33.265367 -117.050452 142 4997ft 144kts
08-Aug-17 09:27 33.232052 -117.026100 150 4041ft 128kts
08-Aug-17 09:28 33.205204 -117.007842 150 3506ft 104kts
08-Aug-17 09:29 33.180127 -117.008694 241 3504ft 109kts
08-Aug-17 09:30 33.165460 -117.041381 255 3501ft 114kts
08-Aug-17 09:31 33.158247 -117.079344 260 3496ft 119kts
08-Aug-17 09:32 33.152603 -117.116067 260 3101ft 96kts
08-Aug-17 09:33 33.148185 -117.145614 261 2633ft 102kts
08-Aug-17 09:34 33.142530 -117.183594 261 1966ft 95kts
08-Aug-17 09:35 33.137746 -117.215798 261 1390ft 106kts
08-Aug-17 09:36 33.132969 -117.250067 262 797ft 93kts
08-Aug-17 09:37 33.128623 -117.278088 255 335ft 63kts
08-Aug-17 09:38 33.127099 -117.283167 228 335ft 0kts
08-Aug-17 09:39 33.125984 -117.283050 170 335ft 12kts
08-Aug-17 09:40 33.125439 -117.283132 73 335ft 0kts
08-Aug-17 09:41 33.125439 -117.283132 73 335ft 0kts
08-Aug-17 09:42 33.125439 -117.283132 73 335ft 0kts
08-Aug-17 09:43 33.125439 -117.283132 73 335ft 0kts
08-Aug-17 09:44 33.125439 -117.283132 73 335ft 0kts
08-Aug-17 09:45 33.125439 -117.283132 73 335ft 0kts
08-Aug-17 09:46 33.125439 -117.283132 73 335ft 0kts

Navigation Log

Ident Type
1. KSNA Airport
2. OCN Navaid
3. KCRQ Airport